Time;durP1;ratioP1;P1;durP2;ratioP2;P2;SDS_P1;SDS_P2;PMS_P1;PMS_P2;Temp;Humidity;BMP_temperature;BMP_pressure;BME280_temperature;BME280_humidity;BME280_pressure;Samples;Min_cycle;Max_cycle;Signal;HPM_P1;HPM_P2
2023/03/29 00:00:18;;;;;;;1.43;1.33;;;;;;;21.45;27.25;95377.75;6236507;28;108882;-70
2023/03/29 00:03:29;;;;;;;1.60;1.50;;;;;;;21.43;27.41;95374.59;6224590;27;111075;-69
2023/03/29 00:06:37;;;;;;;1.50;1.40;;;;;;;21.42;27.22;95373.03;6235594;27;109189;-69
2023/03/29 00:09:45;;;;;;;2.00;1.80;;;;;;;21.40;26.96;95369.88;6235970;27;109866;-69
2023/03/29 00:12:52;;;;;;;2.37;1.60;;;;;;;21.40;27.36;95380.50;6225833;28;109710;-69
2023/03/29 00:16:00;;;;;;;1.40;1.30;;;;;;;21.42;27.47;95377.56;6224952;27;110696;-69
2023/03/29 00:19:11;;;;;;;1.40;1.30;;;;;;;21.36;27.29;95366.22;6232990;28;109061;-69
2023/03/29 00:22:19;;;;;;;1.83;1.40;;;;;;;21.41;27.39;95368.00;6233063;28;109023;-69
2023/03/29 00:25:27;;;;;;;1.77;1.67;;;;;;;21.35;27.21;95361.19;6228439;27;109063;-68
2023/03/29 00:28:34;;;;;;;1.60;1.40;;;;;;;21.37;27.23;95359.81;6228763;27;109201;-69
2023/03/29 00:31:43;;;;;;;1.50;1.40;;;;;;;21.23;27.17;95358.97;6233330;28;109276;-70
2023/03/29 00:34:54;;;;;;;1.60;1.43;;;;;;;21.37;27.21;95365.13;6233894;28;108941;-69
2023/03/29 00:37:59;;;;;;;1.50;1.40;;;;;;;21.36;27.00;95358.22;6220515;27;109374;-68
2023/03/29 00:41:06;;;;;;;1.90;1.80;;;;;;;21.34;27.05;95365.72;6231816;28;109008;-69
2023/03/29 00:44:45;;;;;;;1.50;1.40;;;;;;;21.35;26.95;95363.84;6231932;28;109191;-69
2023/03/29 00:47:56;;;;;;;1.50;1.40;;;;;;;21.36;27.15;95365.41;6222514;28;111682;-68
2023/03/29 00:51:07;;;;;;;1.60;1.50;;;;;;;21.33;27.35;95360.66;6220989;28;110929;-68
2023/03/29 00:54:17;;;;;;;1.67;1.57;;;;;;;21.33;27.01;95358.78;6223010;28;109014;-69
2023/03/29 00:57:29;;;;;;;1.70;1.60;;;;;;;21.30;27.26;95367.38;6230076;28;109883;-69
2023/03/29 01:00:42;;;;;;;1.57;1.47;;;;;;;21.22;26.82;95357.41;6222522;28;110817;-69
2023/03/29 01:03:52;;;;;;;1.50;1.40;;;;;;;21.30;27.04;95362.03;6229302;28;109876;-69
2023/03/29 01:07:06;;;;;;;1.90;1.80;;;;;;;21.29;26.92;95359.66;6231587;28;111376;-70
2023/03/29 01:10:16;;;;;;;1.43;1.33;;;;;;;21.30;27.15;95363.91;6222996;28;108794;-69
2023/03/29 01:13:29;;;;;;;1.80;1.40;;;;;;;21.26;27.08;95366.38;6220094;28;111839;-69
2023/03/29 01:16:39;;;;;;;1.70;1.60;;;;;;;21.26;27.28;95371.69;6233033;28;109228;-70
2023/03/29 01:19:50;;;;;;;1.63;1.53;;;;;;;21.28;27.12;95377.50;6219774;28;108975;-69
2023/03/29 01:23:29;;;;;;;1.53;1.43;;;;;;;21.30;27.11;95379.88;6218375;27;109421;-69
2023/03/29 01:26:46;;;;;;;1.90;1.80;;;;;;;21.22;27.26;95373.38;6219210;28;109113;-65
2023/03/29 01:29:59;;;;;;;2.60;1.83;;;;;;;21.23;27.44;95369.63;6220078;28;108956;-65
2023/03/29 01:33:10;;;;;;;1.70;1.60;;;;;;;21.24;27.00;95371.19;6232184;28;109215;-65
2023/03/29 01:36:19;;;;;;;1.83;1.73;;;;;;;21.23;27.19;95377.59;6219797;27;111204;-65
2023/03/29 01:39:23;;;;;;;1.70;1.60;;;;;;;21.26;27.05;95376.22;6234184;28;109128;-65
2023/03/29 01:42:39;;;;;;;1.50;1.40;;;;;;;21.24;27.22;95387.16;6224495;28;110651;-66
2023/03/29 01:45:52;;;;;;;1.87;1.57;;;;;;;21.18;27.37;95372.38;6211656;27;109100;-65
2023/03/29 01:49:03;;;;;;;1.70;1.60;;;;;;;21.16;26.99;95364.66;6226007;28;109285;-62
2023/03/29 01:52:13;;;;;;;1.43;1.33;;;;;;;21.23;27.60;95377.59;6234376;28;111790;-63
2023/03/29 01:55:22;;;;;;;1.83;1.73;;;;;;;21.22;26.98;95378.69;6233909;28;109017;-64
2023/03/29 01:58:34;;;;;;;1.90;1.70;;;;;;;21.19;27.08;95376.63;6222947;27;110089;-64
2023/03/29 02:01:47;;;;;;;3.13;2.93;;;;;;;21.15;27.19;95368.41;6233328;28;108813;-63
2023/03/29 02:04:56;;;;;;;2.03;1.93;;;;;;;21.20;26.90;95381.66;6232664;28;109099;-63
2023/03/29 02:08:04;;;;;;;3.40;3.10;;;;;;;21.10;26.16;95381.81;6228155;28;108924;-62
2023/03/29 02:11:12;;;;;;;2.70;2.50;;;;;;;21.13;26.80;95388.41;6228847;27;108929;-62
2023/03/29 02:14:20;;;;;;;2.80;2.60;;;;;;;21.14;26.87;95387.31;6209859;28;108821;-61
2023/03/29 02:17:31;;;;;;;2.47;2.27;;;;;;;21.14;27.02;95392.66;6229668;28;109064;-64
2023/03/29 02:20:46;;;;;;;2.90;2.70;;;;;;;21.07;27.02;95376.28;6221795;27;109049;-61
2023/03/29 02:23:54;;;;;;;3.00;2.80;;;;;;;21.15;27.00;95391.56;6226475;27;109901;-61
2023/03/29 02:27:00;;;;;;;3.10;2.90;;;;;;;21.15;27.16;95395.00;6230927;28;109027;-63
2023/03/29 02:30:09;;;;;;;5.60;5.10;;;;;;;21.13;26.89;95396.38;6232641;27;109392;-61
2023/03/29 02:33:20;;;;;;;3.53;3.23;;;;;;;21.16;27.07;95401.13;6222845;28;109680;-62
2023/03/29 02:36:34;;;;;;;4.07;3.67;;;;;;;21.14;27.28;95398.75;6235945;28;109002;-62
2023/03/29 02:39:42;;;;;;;3.90;3.60;;;;;;;21.12;27.02;95403.59;6231926;28;109583;-63
2023/03/29 02:42:48;;;;;;;3.80;3.50;;;;;;;21.11;26.93;95403.88;6220104;27;109395;-63
2023/03/29 02:45:57;;;;;;;3.80;3.50;;;;;;;21.12;27.05;95394.81;6235475;28;108818;-63
2023/03/29 02:49:05;;;;;;;4.70;4.40;;;;;;;21.11;27.05;95407.31;6234193;27;109428;-61
2023/03/29 02:52:20;;;;;;;4.63;4.23;;;;;;;21.14;26.87;95408.63;6220469;28;110012;-64
2023/03/29 02:55:33;;;;;;;4.60;4.20;;;;;;;21.16;27.24;95412.56;6219287;27;109751;-62
2023/03/29 02:58:58;;;;;;;4.23;3.93;;;;;;;21.10;27.15;95403.09;6226458;28;109610;-64
2023/03/29 03:02:05;;;;;;;4.27;3.97;;;;;;;21.08;27.04;95405.25;6233550;28;110207;-64
2023/03/29 03:05:16;;;;;;;3.90;3.60;;;;;;;21.07;26.94;95408.22;6228311;27;109162;-63
2023/03/29 03:08:23;;;;;;;4.17;3.57;;;;;;;20.93;26.38;95414.22;6234618;28;109722;-63
2023/03/29 03:11:29;;;;;;;4.83;3.80;;;;;;;20.84;26.39;95415.19;6234808;28;109098;-63
2023/03/29 03:14:34;;;;;;;3.53;3.23;;;;;;;20.74;26.22;95425.94;6235921;28;109274;-60
2023/03/29 03:17:42;;;;;;;3.77;3.40;;;;;;;20.43;26.02;95425.56;6223127;27;109981;-60
2023/03/29 03:21:00;;;;;;;3.17;2.87;;;;;;;20.02;25.19;95420.72;6237038;28;109326;-60
2023/03/29 03:24:08;;;;;;;7.70;4.00;;;;;;;19.86;25.46;95416.63;6233335;27;109143;-58
2023/03/29 03:27:15;;;;;;;3.00;2.67;;;;;;;19.91;25.11;95432.50;6230785;28;109847;-60
2023/03/29 03:30:22;;;;;;;3.20;3.00;;;;;;;19.73;24.50;95434.00;6225066;27;109258;-58
2023/03/29 03:33:46;;;;;;;5.03;2.73;;;;;;;19.64;24.51;95425.84;6231539;28;111281;-58
2023/03/29 03:36:55;;;;;;;2.80;2.60;;;;;;;19.56;24.04;95438.94;6231367;28;109428;-60
2023/03/29 03:40:04;;;;;;;2.43;2.33;;;;;;;19.51;24.09;95439.78;6217588;27;109233;-60
2023/03/29 03:43:11;;;;;;;2.80;2.60;;;;;;;19.45;23.74;95437.44;6229234;27;109101;-58
2023/03/29 03:46:19;;;;;;;3.93;3.20;;;;;;;19.30;23.64;95433.03;6231333;28;109327;-58
2023/03/29 03:49:24;;;;;;;3.57;3.10;;;;;;;19.21;23.19;95440.00;6235123;28;109098;-58
2023/03/29 03:52:32;;;;;;;2.80;2.60;;;;;;;19.16;23.14;95440.06;6224350;28;109584;-59
2023/03/29 03:55:38;;;;;;;3.03;2.83;;;;;;;19.16;22.91;95446.16;6236256;28;109049;-58
2023/03/29 03:58:46;;;;;;;3.03;2.77;;;;;;;19.03;22.26;95457.38;6213221;28;109438;-58
2023/03/29 04:01:55;;;;;;;5.73;2.60;;;;;;;18.93;22.77;95452.91;6221021;28;109088;-59
2023/03/29 04:05:03;;;;;;;5.00;3.60;;;;;;;19.61;24.97;95438.91;6235571;27;109282;-57
2023/03/29 04:08:11;;;;;;;3.60;3.30;;;;;;;19.93;24.07;95459.56;6235316;28;109109;-60
2023/03/29 04:11:17;;;;;;;4.03;3.63;;;;;;;20.20;26.68;95465.13;6236509;27;109384;-60
2023/03/29 04:14:23;;;;;;;3.63;3.33;;;;;;;20.31;26.11;95505.69;6217385;27;109835;-61
2023/03/29 04:17:28;;;;;;;6.70;3.90;;;;;;;20.23;26.29;95461.91;6233856;27;110765;-60
2023/03/29 04:20:36;;;;;;;4.80;3.47;;;;;;;20.36;25.65;95480.94;6229182;28;108726;-58
2023/03/29 04:23:45;;;;;;;3.77;3.47;;;;;;;20.38;25.58;95470.81;6236176;28;109245;-61
2023/03/29 04:26:53;;;;;;;5.20;3.13;;;;;;;20.38;25.44;95473.47;6224711;27;110400;-58
2023/03/29 04:30:03;;;;;;;3.93;3.00;;;;;;;20.44;25.38;95474.97;6235972;28;109116;-58
2023/03/29 04:33:11;;;;;;;5.07;2.87;;;;;;;20.44;25.40;95472.31;6235840;28;108901;-58
2023/03/29 04:36:17;;;;;;;2.90;2.70;;;;;;;20.43;25.03;95474.19;6230733;28;109230;-58
2023/03/29 04:39:33;;;;;;;2.60;2.40;;;;;;;20.45;25.33;95477.34;6229292;28;109396;-59
2023/03/29 04:42:43;;;;;;;2.93;2.43;;;;;;;20.45;25.29;95471.25;6235445;28;109378;-58
2023/03/29 04:45:49;;;;;;;2.80;2.27;;;;;;;20.47;25.20;95487.69;6235590;28;109020;-58
2023/03/29 04:48:56;;;;;;;2.97;2.40;;;;;;;20.48;25.38;95482.09;6223903;28;111329;-58
2023/03/29 04:52:03;;;;;;;2.80;2.60;;;;;;;20.50;25.49;95485.28;6235583;28;108828;-57
2023/03/29 04:55:12;;;;;;;2.97;2.77;;;;;;;20.51;25.62;95481.56;6234541;28;109035;-60
2023/03/29 04:58:20;;;;;;;2.73;2.37;;;;;;;20.54;25.64;95498.81;6235611;28;109121;-58
2023/03/29 05:01:34;;;;;;;2.37;2.17;;;;;;;20.41;25.41;95491.50;6224029;27;110183;-58
2023/03/29 05:04:45;;;;;;;2.73;2.53;;;;;;;20.19;25.34;95452.13;6235042;28;109579;-57
2023/03/29 05:07:51;;;;;;;2.90;2.67;;;;;;;20.52;25.43;95512.38;6235494;28;109960;-58
2023/03/29 05:11:01;;;;;;;2.50;2.23;;;;;;;20.57;25.26;95516.84;6224255;27;109243;-59
2023/03/29 05:14:08;;;;;;;2.70;2.50;;;;;;;20.46;25.51;95507.38;6234217;28;109070;-58
2023/03/29 05:17:15;;;;;;;2.80;2.50;;;;;;;20.55;25.41;95522.44;6235386;28;109442;-58
2023/03/29 05:20:23;;;;;;;2.40;2.23;;;;;;;20.55;25.64;95530.41;6235322;28;109121;-58
2023/03/29 05:23:30;;;;;;;3.10;2.60;;;;;;;20.52;25.45;95535.50;6224284;28;111510;-59
2023/03/29 05:26:38;;;;;;;2.37;2.27;;;;;;;20.56;25.61;95547.16;6234693;28;109131;-58
2023/03/29 05:29:46;;;;;;;2.10;1.90;;;;;;;20.57;25.64;95554.84;6234771;28;109383;-59
2023/03/29 05:32:53;;;;;;;1.97;1.87;;;;;;;20.54;25.72;95546.66;6211033;28;109256;-58
2023/03/29 05:36:03;;;;;;;1.80;1.70;;;;;;;20.61;25.59;95563.03;6202943;28;109509;-58
2023/03/29 05:39:10;;;;;;;1.60;1.50;;;;;;;20.61;25.66;95571.03;6210200;28;109050;-59
2023/03/29 05:42:21;;;;;;;2.07;1.67;;;;;;;20.64;25.64;95559.81;6209204;28;109264;-58
2023/03/29 05:45:28;;;;;;;2.37;2.17;;;;;;;20.69;25.68;95578.41;6198772;28;110896;-59
2023/03/29 05:48:36;;;;;;;3.80;1.93;;;;;;;20.74;25.56;95570.34;6209526;28;108983;-58
2023/03/29 05:51:44;;;;;;;2.17;2.00;;;;;;;20.78;25.69;95566.03;6222886;28;109062;-60
2023/03/29 05:54:53;;;;;;;2.20;2.00;;;;;;;20.92;25.73;95576.78;6234650;28;109048;-60
2023/03/29 05:58:05;;;;;;;2.20;2.00;;;;;;;21.05;25.58;95585.97;6224109;27;110530;-57
2023/03/29 06:01:13;;;;;;;2.53;1.63;;;;;;;21.14;25.12;95579.72;6234516;28;109127;-58
2023/03/29 06:04:20;;;;;;;1.90;1.80;;;;;;;21.20;25.48;95573.28;6234021;27;109008;-57
2023/03/29 06:07:27;;;;;;;2.10;1.90;;;;;;;21.23;25.03;95569.25;6214365;28;109618;-58
2023/03/29 06:10:37;;;;;;;2.00;1.90;;;;;;;21.25;24.89;95574.28;6208434;28;109771;-59
2023/03/29 06:13:48;;;;;;;1.87;1.67;;;;;;;21.28;24.88;95585.13;6212793;28;109735;-58
2023/03/29 06:16:55;;;;;;;2.00;1.80;;;;;;;21.29;25.58;95578.72;6213690;28;110529;-58
2023/03/29 06:20:07;;;;;;;1.90;1.80;;;;;;;21.43;25.07;95590.25;6202245;28;110531;-59
2023/03/29 06:23:16;;;;;;;2.17;1.80;;;;;;;21.49;24.71;95591.75;6213520;28;109060;-58
2023/03/29 06:26:26;;;;;;;2.10;1.60;;;;;;;21.56;24.96;95578.09;6213487;28;109207;-59
2023/03/29 06:29:36;;;;;;;2.00;1.90;;;;;;;21.66;25.15;95601.09;6213388;28;109276;-58
2023/03/29 06:32:43;;;;;;;2.47;2.27;;;;;;;21.63;24.98;95597.16;6201777;28;110902;-59
2023/03/29 06:35:51;;;;;;;1.97;1.87;;;;;;;21.53;25.21;95602.66;6213817;28;111689;-59
2023/03/29 06:38:58;;;;;;;1.73;1.60;;;;;;;21.40;24.93;95596.16;6213289;28;109059;-58
2023/03/29 06:42:21;;;;;;;2.67;2.27;;;;;;;21.49;25.42;95618.38;6200137;28;111110;-58
2023/03/29 06:45:32;;;;;;;2.33;2.00;;;;;;;21.44;25.13;95621.13;6212356;28;108943;-58
2023/03/29 06:48:40;;;;;;;1.83;1.60;;;;;;;21.45;25.50;95617.38;6212950;28;109058;-58
2023/03/29 06:51:49;;;;;;;2.07;1.80;;;;;;;21.52;25.58;95623.16;6225354;28;109512;-57
2023/03/29 06:54:56;;;;;;;2.10;1.83;;;;;;;21.47;25.81;95617.88;6227224;28;111202;-57
2023/03/29 06:58:07;;;;;;;1.60;1.50;;;;;;;21.55;25.98;95627.13;6235487;28;109606;-57
2023/03/29 07:01:15;;;;;;;2.00;1.90;;;;;;;21.49;26.13;95621.03;6212714;28;109134;-58
2023/03/29 07:04:23;;;;;;;1.73;1.63;;;;;;;21.49;26.42;95594.41;6207613;28;108899;-57
2023/03/29 07:07:42;;;;;;;1.80;1.70;;;;;;;21.38;25.77;95552.28;6207188;28;110396;-58
2023/03/29 07:10:49;;;;;;;1.80;1.70;;;;;;;21.76;25.84;95606.28;6212501;28;110046;-63
2023/03/29 07:13:59;;;;;;;3.53;3.23;;;;;;;21.71;26.14;95590.41;6211904;28;109165;-62
2023/03/29 07:17:09;;;;;;;3.43;3.13;;;;;;;21.78;26.17;95601.47;6198561;28;109106;-57
2023/03/29 07:20:17;;;;;;;2.90;2.70;;;;;;;21.93;25.73;95598.59;6212331;28;110136;-58
2023/03/29 07:23:23;;;;;;;3.40;2.70;;;;;;;22.02;25.77;95607.53;6237522;28;110324;-58
2023/03/29 07:26:31;;;;;;;3.10;2.80;;;;;;;22.10;25.82;95600.72;6237305;28;109272;-58
2023/03/29 07:29:38;;;;;;;3.60;3.30;;;;;;;22.13;25.99;95588.69;6226016;28;109259;-58
2023/03/29 07:32:49;;;;;;;2.80;2.60;;;;;;;22.16;26.07;95582.78;6236312;28;109294;-58
2023/03/29 07:35:54;;;;;;;4.70;2.80;;;;;;;22.31;25.62;95590.50;6237046;28;109112;-58
2023/03/29 07:39:02;;;;;;;2.93;2.70;;;;;;;22.37;25.86;95600.03;6229969;28;110179;-59
2023/03/29 07:42:10;;;;;;;2.37;2.17;;;;;;;22.32;25.97;95602.75;6236421;28;109264;-58
2023/03/29 07:45:19;;;;;;;2.70;2.50;;;;;;;22.34;26.16;95595.25;6236676;28;109901;-58
2023/03/29 07:48:35;;;;;;;2.70;2.50;;;;;;;22.35;26.30;95584.31;6235352;28;109110;-58
2023/03/29 07:51:44;;;;;;;2.50;2.30;;;;;;;22.40;26.38;95586.09;6224851;27;109132;-58
2023/03/29 07:54:54;;;;;;;2.50;2.30;;;;;;;22.31;26.32;95577.97;6236429;28;109367;-58
2023/03/29 07:58:02;;;;;;;2.60;2.40;;;;;;;22.38;26.06;95580.28;6236712;28;108853;-57
2023/03/29 08:01:08;;;;;;;2.50;2.30;;;;;;;22.44;26.40;95579.09;6211694;28;110247;-58
2023/03/29 08:04:21;;;;;;;2.40;2.20;;;;;;;22.42;26.25;95581.25;6204110;28;109613;-58
2023/03/29 08:07:27;;;;;;;2.70;2.50;;;;;;;22.43;26.30;95572.16;6211442;28;109299;-58
2023/03/29 08:10:33;;;;;;;2.30;2.10;;;;;;;22.38;26.57;95561.59;6211589;28;109308;-58
2023/03/29 08:13:37;;;;;;;2.37;2.13;;;;;;;22.49;26.00;95570.97;6199911;28;110333;-59
2023/03/29 08:16:42;;;;;;;2.00;1.90;;;;;;;22.50;26.54;95561.88;6234615;28;109155;-58
2023/03/29 08:19:48;;;;;;;2.13;2.03;;;;;;;22.54;26.06;95570.91;6235307;28;109058;-58
2023/03/29 08:22:56;;;;;;;2.33;2.13;;;;;;;22.55;26.06;95555.69;6236365;28;111337;-60
2023/03/29 08:26:01;;;;;;;2.50;2.30;;;;;;;22.58;26.09;95561.25;6224544;28;109171;-59
2023/03/29 08:29:07;;;;;;;1.93;1.80;;;;;;;22.55;26.05;95553.03;6235148;27;109112;-59
2023/03/29 08:32:12;;;;;;;2.40;2.17;;;;;;;22.56;26.40;95560.72;6235624;28;109000;-59
2023/03/29 08:35:18;;;;;;;2.27;2.10;;;;;;;22.59;25.79;95573.50;6235110;28;109047;-59
2023/03/29 08:38:23;;;;;;;2.00;1.90;;;;;;;22.58;26.50;95558.59;6227482;27;110463;-59
2023/03/29 08:41:40;;;;;;;2.30;2.10;;;;;;;22.60;26.22;95561.75;6236077;28;109103;-59
2023/03/29 08:44:59;;;;;;;2.23;2.03;;;;;;;22.61;26.42;95554.53;6236201;28;109590;-59
2023/03/29 08:48:16;;;;;;;2.33;2.13;;;;;;;22.62;25.94;95567.56;6224281;28;108949;-59
2023/03/29 08:51:26;;;;;;;2.23;2.03;;;;;;;22.62;25.91;95566.78;6235275;28;109003;-59
2023/03/29 08:54:34;;;;;;;1.93;1.83;;;;;;;22.63;26.36;95566.47;6235666;28;109041;-59
2023/03/29 08:57:44;;;;;;;1.93;1.83;;;;;;;22.60;25.96;95556.41;6234821;28;108995;-60
2023/03/29 09:00:52;;;;;;;2.33;2.13;;;;;;;22.56;25.98;95543.94;6201861;28;109774;-59
2023/03/29 09:04:07;;;;;;;1.80;1.70;;;;;;;22.58;26.20;95547.91;6210507;28;108673;-59
2023/03/29 09:07:15;;;;;;;2.20;2.00;;;;;;;22.61;26.49;95536.66;6210419;28;109185;-59
2023/03/29 09:10:25;;;;;;;1.80;1.70;;;;;;;22.59;26.14;95541.50;6200841;28;110193;-59
2023/03/29 09:13:42;;;;;;;2.37;2.17;;;;;;;22.58;26.02;95545.25;6210425;28;111815;-59
2023/03/29 09:16:56;;;;;;;1.90;1.80;;;;;;;22.58;26.12;95544.44;6209457;28;109016;-59
2023/03/29 09:20:14;;;;;;;1.77;1.67;;;;;;;22.58;26.46;95545.25;6210306;28;109124;-59
2023/03/29 09:23:45;;;;;;;2.03;1.93;;;;;;;22.59;26.22;95560.16;6198159;28;110312;-59
2023/03/29 09:26:54;;;;;;;2.27;2.07;;;;;;;22.57;26.23;95540.22;6210362;28;109114;-59
2023/03/29 09:30:23;;;;;;;2.00;1.90;;;;;;;22.57;26.31;95529.53;6210073;28;109119;-59
2023/03/29 09:33:33;;;;;;;2.13;1.93;;;;;;;22.52;26.39;95534.94;6198531;28;109054;-59
2023/03/29 09:36:46;;;;;;;1.77;1.67;;;;;;;22.54;26.37;95533.56;6209514;28;109213;-59
2023/03/29 09:39:55;;;;;;;2.30;2.10;;;;;;;22.54;26.54;95522.91;6210252;28;108840;-59
2023/03/29 09:43:03;;;;;;;1.70;1.60;;;;;;;22.54;25.90;95530.91;6214495;28;110074;-59
2023/03/29 09:46:16;;;;;;;2.20;2.00;;;;;;;22.53;26.56;95526.66;6202534;28;109069;-59
2023/03/29 09:49:25;;;;;;;1.97;1.83;;;;;;;22.52;26.02;95514.41;6214501;28;111337;-59
2023/03/29 09:52:30;;;;;;;2.07;1.87;;;;;;;22.51;26.17;95504.78;6231929;28;109098;-59
2023/03/29 09:55:39;;;;;;;1.97;1.87;;;;;;;22.48;26.34;95505.38;6232953;27;110180;-59
2023/03/29 09:58:46;;;;;;;1.90;1.77;;;;;;;22.50;26.44;95523.75;6234236;28;109260;-59
2023/03/29 10:01:50;;;;;;;1.93;1.60;;;;;;;22.45;26.45;95523.88;6238832;28;109068;-59
2023/03/29 10:04:59;;;;;;;1.70;1.60;;;;;;;22.47;26.70;95527.81;6237879;28;109074;-59
2023/03/29 10:08:18;;;;;;;1.43;1.33;;;;;;;22.46;26.66;95526.22;6228273;28;110996;-59
2023/03/29 10:11:30;;;;;;;1.80;1.70;;;;;;;22.44;26.21;95517.75;6238331;28;109104;-59
2023/03/29 10:14:37;;;;;;;1.80;1.70;;;;;;;22.42;26.77;95511.91;6238804;28;109073;-59
2023/03/29 10:17:44;;;;;;;1.63;1.53;;;;;;;22.36;26.80;95497.91;6224321;28;109117;-60
2023/03/29 10:20:50;;;;;;;1.50;1.40;;;;;;;22.40;26.63;95519.44;6207811;28;109228;-60
2023/03/29 10:23:59;;;;;;;1.60;1.40;;;;;;;22.37;26.21;95504.03;6238168;28;109032;-59
2023/03/29 10:27:11;;;;;;;1.87;1.77;;;;;;;22.38;26.23;95527.72;6237638;28;109047;-59
2023/03/29 10:30:26;;;;;;;1.40;1.30;;;;;;;22.34;26.84;95526.72;6227755;28;110144;-59
2023/03/29 10:33:34;;;;;;;1.37;1.27;;;;;;;22.34;26.63;95508.03;6238347;28;109094;-60
2023/03/29 10:36:42;;;;;;;1.60;1.50;;;;;;;22.18;26.50;95479.31;6238299;28;110233;-59
2023/03/29 10:39:48;;;;;;;1.30;1.20;;;;;;;22.28;26.49;95498.56;6238614;28;108667;-59
2023/03/29 10:42:58;;;;;;;1.60;1.50;;;;;;;22.20;26.61;95504.59;6226640;28;109277;-59
2023/03/29 10:46:09;;;;;;;1.40;1.30;;;;;;;22.26;26.53;95507.97;6237869;28;109144;-59
2023/03/29 10:49:20;;;;;;;1.67;1.57;;;;;;;22.19;26.97;95497.69;6238457;28;109181;-59
2023/03/29 10:52:25;;;;;;;1.40;1.30;;;;;;;22.13;26.55;95484.75;6231208;27;110271;-59
2023/03/29 10:55:36;;;;;;;1.53;1.43;;;;;;;22.17;26.92;95491.84;6231769;28;109193;-59
2023/03/29 10:58:55;;;;;;;1.23;1.13;;;;;;;22.17;26.58;95493.72;6237000;28;109687;-58
2023/03/29 11:02:41;;;;;;;1.30;1.20;;;;;;;22.11;27.14;95480.50;6237136;28;110005;-59
2023/03/29 11:05:52;;;;;;;1.10;1.00;;;;;;;22.03;26.88;95478.53;6179157;28;109223;-59
2023/03/29 11:08:59;;;;;;;1.37;1.27;;;;;;;22.10;27.06;95473.59;6237808;28;111238;-59
2023/03/29 11:12:16;;;;;;;1.30;1.20;;;;;;;22.06;26.93;95480.59;6237312;28;109223;-59
2023/03/29 11:15:36;;;;;;;1.50;1.40;;;;;;;22.06;26.80;95461.94;6231278;27;109278;-59
2023/03/29 11:18:58;;;;;;;1.37;1.27;;;;;;;22.03;27.01;95470.53;6236663;28;109219;-59
2023/03/29 11:22:10;;;;;;;1.53;1.43;;;;;;;22.01;27.09;95467.38;6237503;28;110375;-59
2023/03/29 11:25:29;;;;;;;1.23;1.13;;;;;;;22.00;27.02;95457.78;6237504;28;109525;-59
2023/03/29 11:28:42;;;;;;;1.30;1.20;;;;;;;21.98;27.01;95461.81;6227091;28;111573;-61
2023/03/29 11:31:59;;;;;;;1.40;1.27;;;;;;;21.90;27.17;95471.28;6210944;28;109838;-59
2023/03/29 11:35:28;;;;;;;1.60;1.40;;;;;;;21.90;27.00;95457.97;6212173;28;110061;-60
2023/03/29 11:38:39;;;;;;;1.30;1.20;;;;;;;21.83;27.16;95438.09;6201258;28;109352;-60
2023/03/29 11:41:52;;;;;;;1.60;1.50;;;;;;;21.90;27.20;95457.19;6212481;28;108918;-59
2023/03/29 11:45:00;;;;;;;1.17;1.07;;;;;;;21.89;26.95;95455.59;6212486;28;111866;-62
2023/03/29 11:48:13;;;;;;;1.27;1.17;;;;;;;21.87;27.11;95473.75;6212085;28;109167;-59
2023/03/29 11:51:23;;;;;;;1.60;1.50;;;;;;;21.84;27.42;95453.00;6208301;28;110629;-59
2023/03/29 11:54:34;;;;;;;1.33;1.23;;;;;;;21.83;27.16;95444.22;6237166;28;109108;-59
2023/03/29 11:57:42;;;;;;;1.47;1.37;;;;;;;21.85;27.23;95459.94;6236692;28;110112;-60
2023/03/29 12:00:54;;;;;;;1.57;1.30;;;;;;;21.83;27.36;95444.22;6230906;28;109358;-59
2023/03/29 12:04:05;;;;;;;1.33;1.23;;;;;;;21.78;27.43;95441.63;6228918;27;109236;-59
2023/03/29 12:07:16;;;;;;;0.97;0.97;;;;;;;21.81;27.12;95446.38;6237111;28;108898;-59
2023/03/29 12:10:22;;;;;;;1.17;0.90;;;;;;;21.79;27.69;95446.66;6236351;28;108834;-59
2023/03/29 12:13:31;;;;;;;1.40;1.27;;;;;;;21.78;27.43;95438.97;6225096;28;109038;-59
2023/03/29 12:16:44;;;;;;;1.30;1.10;;;;;;;21.77;27.28;95437.38;6236785;28;109012;-58
2023/03/29 12:20:03;;;;;;;1.10;1.00;;;;;;;21.77;27.56;95445.38;6236946;28;108610;-58
2023/03/29 12:23:13;;;;;;;1.60;1.43;;;;;;;21.77;27.43;95456.03;6234328;28;109518;-59
2023/03/29 12:26:34;;;;;;;1.30;1.20;;;;;;;21.75;27.28;95460.88;6230372;28;109409;-59
2023/03/29 12:29:53;;;;;;;1.07;0.97;;;;;;;21.72;27.18;95448.13;6236450;28;109400;-59
2023/03/29 12:33:22;;;;;;;1.10;0.90;;;;;;;21.59;27.28;95425.72;6236341;28;109063;-59
2023/03/29 12:36:50;;;;;;;1.33;1.00;;;;;;;21.72;27.64;95454.25;6223815;27;110101;-60
2023/03/29 12:40:10;;;;;;;1.20;1.10;;;;;;;21.65;27.43;95442.38;6236433;28;111384;-59
2023/03/29 12:43:26;;;;;;;1.00;1.00;;;;;;;21.67;27.62;95442.88;6235656;28;109423;-59
2023/03/29 12:46:34;;;;;;;1.33;1.10;;;;;;;21.69;27.57;95436.22;6230184;27;110229;-60
2023/03/29 12:49:40;;;;;;;1.10;1.00;;;;;;;21.70;27.84;95439.66;6232654;28;111585;-59
2023/03/29 12:52:47;;;;;;;1.23;1.13;;;;;;;21.66;27.74;95439.44;6235779;28;111258;-60
2023/03/29 12:56:07;;;;;;;1.33;1.23;;;;;;;21.66;27.83;95434.09;6235843;28;109531;-59
2023/03/29 12:59:26;;;;;;;1.00;0.90;;;;;;;21.68;27.75;95439.94;6224392;27;109431;-60
2023/03/29 13:02:37;;;;;;;1.10;1.00;;;;;;;21.69;27.67;95430.09;6235518;28;109038;-59
2023/03/29 13:05:44;;;;;;;1.17;1.07;;;;;;;21.67;27.61;95449.00;6234743;28;109276;-60
2023/03/29 13:09:00;;;;;;;1.17;0.87;;;;;;;21.67;27.85;95437.56;6229472;28;109585;-59
2023/03/29 13:12:23;;;;;;;0.97;0.87;;;;;;;21.66;27.34;95441.31;6228441;28;109127;-59
2023/03/29 13:15:33;;;;;;;1.30;1.20;;;;;;;21.66;27.80;95451.97;6233764;28;109198;-59
2023/03/29 13:18:57;;;;;;;1.13;1.00;;;;;;;21.65;27.64;95440.50;6234977;28;109206;-59
2023/03/29 13:22:13;;;;;;;1.00;0.90;;;;;;;21.65;27.55;95445.84;6224456;28;109065;-59
2023/03/29 13:25:37;;;;;;;1.30;1.20;;;;;;;21.59;27.67;95430.25;6235097;28;109120;-60
2023/03/29 13:28:55;;;;;;;1.10;1.00;;;;;;;21.63;27.84;95441.91;6234890;28;109162;-57
2023/03/29 13:32:13;;;;;;;1.13;1.03;;;;;;;21.63;27.63;95432.03;6228658;27;109283;-60
2023/03/29 13:35:27;;;;;;;1.20;1.10;;;;;;;21.62;27.95;95440.31;6234153;28;109337;-60
2023/03/29 13:38:34;;;;;;;1.17;1.07;;;;;;;21.57;27.55;95427.88;6234422;28;109447;-60
2023/03/29 13:41:49;;;;;;;1.07;0.90;;;;;;;21.56;27.61;95439.63;6233577;28;109007;-59
2023/03/29 13:44:53;;;;;;;1.23;0.87;;;;;;;21.61;28.05;95436.06;6223174;27;110796;-59
2023/03/29 13:48:06;;;;;;;1.43;1.17;;;;;;;21.56;27.87;95425.50;6234542;28;109039;-58
2023/03/29 13:51:27;;;;;;;1.20;1.00;;;;;;;21.45;27.78;95415.03;6234466;28;109251;-59
2023/03/29 13:54:37;;;;;;;0.70;0.70;;;;;;;21.60;27.76;95435.28;6228949;28;109104;-58
2023/03/29 13:57:50;;;;;;;1.00;0.90;;;;;;;21.61;27.77;95428.09;6229104;28;109695;-59
2023/03/29 14:01:01;;;;;;;3.03;1.10;;;;;;;21.56;27.72;95439.63;6233967;28;109598;-59
2023/03/29 14:04:11;;;;;;;1.07;1.00;;;;;;;21.59;27.82;95443.56;6233782;28;109076;-59
2023/03/29 14:07:19;;;;;;;1.10;1.00;;;;;;;21.58;27.68;95439.31;6222916;28;109503;-59
2023/03/29 14:10:27;;;;;;;0.97;0.97;;;;;;;21.58;27.61;95444.66;6234205;28;109058;-59
2023/03/29 14:13:35;;;;;;;0.80;0.80;;;;;;;21.58;28.05;95452.63;6233285;28;109049;-58
2023/03/29 14:16:41;;;;;;;0.77;0.77;;;;;;;21.57;27.77;95441.19;6233822;28;109061;-59
2023/03/29 14:19:48;;;;;;;1.20;1.00;;;;;;;21.57;27.72;95445.75;6222692;28;109075;-59
2023/03/29 14:22:53;;;;;;;0.93;0.90;;;;;;;21.56;27.70;95439.63;6234384;28;111360;-59
2023/03/29 14:26:06;;;;;;;1.00;0.90;;;;;;;21.56;27.84;95444.16;6235069;27;108824;-58
2023/03/29 14:29:15;;;;;;;1.20;0.97;;;;;;;21.56;28.03;95436.16;6228548;27;110446;-59
2023/03/29 14:32:28;;;;;;;0.87;0.87;;;;;;;21.56;27.66;95452.16;6237697;28;110326;-59
2023/03/29 14:35:34;;;;;;;0.83;0.83;;;;;;;21.55;27.79;95450.56;6237593;28;109314;-58
2023/03/29 14:38:39;;;;;;;2.37;1.40;;;;;;;21.53;27.43;95448.19;6237818;28;109073;-59
2023/03/29 14:41:49;;;;;;;1.07;0.97;;;;;;;21.55;28.07;95450.56;6226814;27;110782;-59
2023/03/29 14:45:04;;;;;;;1.60;1.20;;;;;;;21.49;27.69;95444.50;6236866;28;109820;-58